Ana Sayfa
METAR-TAF:

METAR-TAF

Havaalanları :

Mar del Plata, Arjantin

Enlem: 37-56S, Boylam: 057-35W, yükseklik: 18 m

Güncel hava durumu gözlemi

Rapor saat 03:00 UTC de 34 dakika önce yapıldı.
Rüzgar kuzey/kuzeybatıdan 10 kt
Sıcaklık 21°C
Nem 78%
Basınç 1008 hPa
Görüş mesafesi 10 km veya daha fazla
1500 m altında bulut yok ve kümülonimbus yok

METAR: SAZM 210300Z 34010KT CAVOK 21/17 Q1008

Saat: 00:34 (03:34 UTC)

Tahmin

Rapor saat 23:00 UTC de 4 saat ve 34 dakika önce yapıldı.
Ayın 21'si saat 00 UTC'den ayın 21'si saat 24 UTC'ye kadar geçerli Tahmin
Rüzgar kuzeybatıdan 15 kt
Görüş mesafesi 10 km veya daha fazla
1500 m altında bulut yok ve kümülonimbus yok

TAF: SAZM 202300Z 2100/2124 32015KT CAVOK TX28/2119Z TN16/2109Z

4.000'den fazla havaalanı için hava durumu gözlemleri ve tahminleri (METAR ve TAF raporları).

Kullanılabilir istasyonlar harita üzerinde sarı ve kırmızı noktalarla gösterilir.

İstasyonun adını görmek için fareyi noktanın üzerinde gezdirin.

Sonrasında hava gözlem ve tahminlerini görmek için tıklayın.

Haritayı değiştirmek için: yaklaştırmak için siyah artı işaretli yeşil düğmeye ve uzaklaştırmak için de eksi işaretli düğmeye hızla tıklayın; bitişik haritalar için yeşil okları kullanın.


METAR-TAF: